PWSweather.com
Personal Weather Stations
Station Observations

AwhituWaiuku, CA 268400

Lat: -37.058, Lon: -174.6346

Elevation: 250

Station Type: Personal

http://www.weather-display.com/windy/gb/grahamsbeach.htm

High Low Average
Temperature 70.0°F21.1°C 58.1°F14.5°C 61.6°F16.4°C
Dew Point 60.4°F15.8°C 51.0°F10.6°C 56.2°F13.4°C
Winds 9.9 mph 15.9 kmh Calm Calm 2.0 mph SW3.2 kmh SW
Wind Gusts 13.0 mph20.9 kmh -- 3.0 mph4.8 kmh
Humidity 94% 51% 84%
Pressure 30.24 in1024.0 mb 30.14 in1020.7 mb -
Precipitation 0.00 in0.0 mm - -
Hour Temp Dew Point Humidity Winds Wind Gusts Pressure Precip Precip Rate Daily Precip Total
12:00 AM 59.5°F15.3°C 55.9°F13.3°C 88% Calm Calm -- 30.24 in1024.0 mb 0.00 in0.0 mm 0.00 in/hr0.0 mm/hr 0.00 in0.0 mm
01:00 AM 58.9°F14.9°C 56.3°F13.5°C 91% Calm Calm -- 30.23 in1023.7 mb 0.00 in0.0 mm 0.00 in/hr0.0 mm/hr 0.00 in0.0 mm
02:00 AM 58.1°F14.5°C 55.8°F13.2°C 92% Calm Calm -- 30.21 in1023.0 mb 0.00 in0.0 mm 0.00 in/hr0.0 mm/hr 0.00 in0.0 mm
03:00 AM 59.0°F15.0°C 57.3°F14.1°C 94% Calm Calm -- 30.20 in1022.7 mb 0.00 in0.0 mm 0.00 in/hr0.0 mm/hr 0.00 in0.0 mm
04:00 AM 58.6°F14.8°C 56.9°F13.8°C 94% Calm Calm -- 30.19 in1022.4 mb 0.00 in0.0 mm 0.00 in/hr0.0 mm/hr 0.00 in0.0 mm
05:00 AM 58.4°F14.7°C 56.7°F13.7°C 94% Calm Calm -- 30.19 in1022.4 mb 0.00 in0.0 mm 0.00 in/hr0.0 mm/hr 0.00 in0.0 mm
06:00 AM 58.3°F14.6°C 56.6°F13.7°C 94% Calm Calm -- 30.19 in1022.4 mb 0.00 in0.0 mm 0.00 in/hr0.0 mm/hr 0.00 in0.0 mm
07:00 AM 61.3°F16.3°C 59.3°F15.2°C 93% Calm Calm -- 30.19 in1022.4 mb 0.00 in0.0 mm 0.00 in/hr0.0 mm/hr 0.00 in0.0 mm
08:00 AM 63.4°F17.4°C 60.4°F15.8°C 90% 2.1 mph S3.4 kmh S 4.0 mph6.4 kmh 30.18 in1022.0 mb 0.00 in0.0 mm 0.00 in/hr0.0 mm/hr 0.00 in0.0 mm
09:00 AM 66.6°F19.2°C 54.9°F12.7°C 66% 5.3 mph WNW8.5 kmh WNW 7.0 mph11.3 kmh 30.17 in1021.7 mb 0.00 in0.0 mm 0.00 in/hr0.0 mm/hr 0.00 in0.0 mm
10:00 AM 67.0°F19.4°C 52.7°F11.5°C 60% 9.1 mph W14.6 kmh W 11.0 mph17.7 kmh 30.17 in1021.7 mb 0.00 in0.0 mm 0.00 in/hr0.0 mm/hr 0.00 in0.0 mm
11:00 AM 70.0°F21.1°C 51.0°F10.6°C 51% 9.9 mph W15.9 kmh W 13.0 mph20.9 kmh 30.14 in1020.7 mb 0.00 in0.0 mm 0.00 in/hr0.0 mm/hr 0.00 in0.0 mm
12:00 PM 68.9°F20.5°C 54.0°F12.2°C 59% 14.7 mph W23.7 kmh W 18.0 mph29.0 kmh 30.14 in1020.7 mb 0.00 in0.0 mm 0.00 in/hr0.0 mm/hr 0.00 in0.0 mm
01:00 PM 69.9°F21.1°C 52.5°F11.4°C 54% 13.5 mph WSW21.7 kmh WSW 15.0 mph24.1 kmh 30.11 in1019.6 mb 0.00 in0.0 mm 0.00 in/hr0.0 mm/hr 0.00 in0.0 mm
02:00 PM 70.8°F21.6°C 57.2°F14.0°C 62% 14.2 mph WSW22.9 kmh WSW 17.0 mph27.4 kmh 30.10 in1019.3 mb 0.00 in0.0 mm 0.00 in/hr0.0 mm/hr 0.00 in0.0 mm
03:00 PM 70.3°F21.3°C 58.8°F14.9°C 67% 20.0 mph W32.2 kmh W 24.0 mph38.6 kmh 30.08 in1018.6 mb 0.00 in0.0 mm 0.00 in/hr0.0 mm/hr 0.00 in0.0 mm
04:00 PM 69.1°F20.6°C 58.5°F14.7°C 69% 15.8 mph W25.4 kmh W 18.0 mph29.0 kmh 30.06 in1017.9 mb 0.00 in0.0 mm 0.00 in/hr0.0 mm/hr 0.00 in0.0 mm
05:00 PM 69.4°F20.8°C 58.0°F14.4°C 67% 13.0 mph W20.9 kmh W 14.0 mph22.5 kmh 30.05 in1017.6 mb 0.00 in0.0 mm 0.00 in/hr0.0 mm/hr 0.00 in0.0 mm
06:00 PM 66.0°F18.9°C 57.8°F14.3°C 75% 10.8 mph WNW17.4 kmh WNW 13.0 mph20.9 kmh 30.04 in1017.3 mb 0.00 in0.0 mm 0.00 in/hr0.0 mm/hr 0.00 in0.0 mm
07:00 PM 65.7°F18.7°C 56.1°F13.4°C 71% 11.6 mph W18.7 kmh W 14.0 mph22.5 kmh 30.05 in1017.6 mb 0.00 in0.0 mm 0.00 in/hr0.0 mm/hr 0.00 in0.0 mm
08:00 PM 63.1°F17.3°C 56.4°F13.6°C 79% 9.6 mph W15.4 kmh W 13.0 mph20.9 kmh 30.06 in1017.9 mb 0.00 in0.0 mm 0.00 in/hr0.0 mm/hr 0.01 in0.3 mm
09:00 PM 63.1°F17.3°C 57.5°F14.2°C 82% 12.7 mph W20.4 kmh W 16.0 mph25.7 kmh 30.07 in1018.3 mb 0.01 in0.3 mm 0.00 in/hr0.0 mm/hr 0.01 in0.3 mm
10:00 PM 63.2°F17.3°C 56.6°F13.7°C 79% 10.8 mph W17.4 kmh W 13.0 mph20.9 kmh 30.07 in1018.3 mb 0.00 in0.0 mm 0.00 in/hr0.0 mm/hr 0.01 in0.3 mm
11:00 PM 62.8°F17.1°C 56.9°F13.8°C 81% 7.5 mph W12.1 kmh W 10.0 mph16.1 kmh 30.07 in1018.3 mb 0.00 in0.0 mm 0.00 in/hr0.0 mm/hr 0.01 in0.3 mm